Impacts TAF Board INFO
FOR SITUATIONAL AWARENESS. NOT TO BE USED FOR FLIGHT PLANNING PURPOSES.
IDs:

KMCO - Orlando Intl, FL, US

Issued at 2340 UTC 12 Dec 2017
Updated at 0128 UTC 13 Dec 2017
Potential Impact None Slight Moderate High
Time<<13/14Z 13/15Z 13/16Z 13/17Z 13/18Z 13/19Z 13/20Z 13/21Z 13/22Z 13/23Z 14/00Z 14/01Z 14/02Z>>
Type PRVL PRVL PRVL PRVL PRVL PRVL PRVL PRVL PRVL PRVL PRVL PRVL PRVL
VIS >6 >6 >6 >6 >6 >6 >6 >6 >6 >6 >6 >6 >6
CIG -- -- -- -- -- -- -- -- -- -- -- -- --
Cover SKC SKC SKC SKC SKC SKC SKC SKC SKC SKC SKC SKC SKC
FltCat VFR VFR VFR VFR VFR VFR VFR VFR VFR VFR VFR VFR VFR
WX -- -- -- -- -- -- -- -- -- -- -- -- --
WDir 330 330 330 290 290 290 290 290 290 290 220 220 220
WSpd 6 6 6 7 7 7 7 7 7 7 4 4 4
WGst -- -- -- -- -- -- -- -- -- -- -- -- --

Raw TAF
KMCO 122340Z 1300/1406 28010KT P6SM SKC
  FM130200 31008KT P6SM SKC
  FM131300 33006KT P6SM SKC
  FM131700 29007KT P6SM SKC
  FM140000 22004KT P6SM SKC


METAR Board
Radar Display
Forecast Discussion

FOR SITUATIONAL AWARENESS. NOT TO BE USED FOR FLIGHT PLANNING PURPOSES.